South Haven, MI (49090)

8:19 AM EST on January 25, 2015 (GMT -0500)
South Haven | Change Station
CLOSE
Current Station
Airport
Location: South Haven,
Elevation: 666 ft
Nearby Weather Stations

Elev 666 ft 42.35 °N, 86.26 °W | Updated 4 minutes ago

Light Snow
Light Snow
32 °F
Feels Like 24 °F
N
12
Wind Variable Wind from ENE

Today
High -- | Low -- °F
--% Chance of Precip.
Yesterday
High -- | Low -- °F
Precip. -- in
8:05 AM 5:49 PM
Waxing Crescent, 32% visible
Pressure 29.77 in
Visibility 4.0 miles
Clouds Overcast 1200 ft
Windchill 24 °F
Dew Point 29 °F
Humidity 88%
Rainfall 0.00 in
Snow Depth Not available.
UV 0 out of 12
Pollen .10 out of 12
Air Quality Not available.
Flu Activity Not available.
METAR KLWA 251315Z AUTO 07010KT 4SM -SN OVC012 00/M01 A2977 RMK AO2 T00021015

More Conditions Fewer Conditions

Pressure 29.77 in
Visibility 4.0 miles
Clouds Overcast 1200 ft
Windchill 24 °F
Dew Point 29 °F
Humidity 88%
Rainfall 0.00 in
Snow Depth Not available.
UV 0 out of 12
Pollen .10 out of 12
Air Quality Not available.
Flu Activity Not available.
METAR KLWA 251315Z AUTO 07010KT 4SM -SN OVC012 00/M01 A2977 RMK AO2 T00021015

More Conditions Fewer Conditions

10-Day Weather Forecast

Almanac

Astronomy

Jan. 25, 2015 Rise Set
Actual Time
Civil Twilight
Nautical Twilight
Astronomical Twilight
Moon
Length of Visible Light
Length of Day
Tomorrow will be .
, % of the Moon is Illuminated

Today's Extremes

State Highs State Lows

Community

WunderPhotos

Upload Photos

1,789,881 photos uploaded!

WunderBlogs® & News

Nearby

Air Quality

  Air Quality AQ Index Pollutant
Not available.

Snow Depth

Station Depth Elevation

Earthquake Activity

City Distance Mag. Time & Date
Minimum magnitude displayed is 2.5.

Coastal Water Temperatures

Place Temperature

Nearby Weather Stations